sensor_id;sensor_type;location;lat;lon;timestamp;P1;durP1;ratioP1;P2;durP2;ratioP2
75687;SDS011;64300;45.034;38.910;2023-02-28T00:00:42;7.28;;;3.80;;
75687;SDS011;64300;45.034;38.910;2023-02-28T00:03:09;6.93;;;3.38;;
75687;SDS011;64300;45.034;38.910;2023-02-28T00:05:34;8.38;;;3.75;;
75687;SDS011;64300;45.034;38.910;2023-02-28T00:08:00;7.00;;;3.47;;
75687;SDS011;64300;45.034;38.910;2023-02-28T00:10:27;7.97;;;3.28;;
75687;SDS011;64300;45.034;38.910;2023-02-28T00:12:56;7.22;;;3.63;;
75687;SDS011;64300;45.034;38.910;2023-02-28T00:15:25;7.53;;;3.53;;
75687;SDS011;64300;45.034;38.910;2023-02-28T00:17:51;8.52;;;3.83;;
75687;SDS011;64300;45.034;38.910;2023-02-28T00:20:17;6.82;;;3.47;;
75687;SDS011;64300;45.034;38.910;2023-02-28T00:22:44;9.18;;;3.50;;
75687;SDS011;64300;45.034;38.910;2023-02-28T00:25:12;7.85;;;3.47;;
75687;SDS011;64300;45.034;38.910;2023-02-28T00:27:40;8.02;;;3.95;;
75687;SDS011;64300;45.034;38.910;2023-02-28T00:30:08;8.00;;;3.90;;
75687;SDS011;64300;45.034;38.910;2023-02-28T00:32:36;7.68;;;3.67;;
75687;SDS011;64300;45.034;38.910;2023-02-28T00:35:02;7.25;;;3.97;;
75687;SDS011;64300;45.034;38.910;2023-02-28T00:37:29;9.05;;;3.65;;
75687;SDS011;64300;45.034;38.910;2023-02-28T00:39:57;8.70;;;3.75;;
75687;SDS011;64300;45.034;38.910;2023-02-28T00:42:23;8.15;;;4.35;;
75687;SDS011;64300;45.034;38.910;2023-02-28T00:44:49;10.18;;;3.75;;
75687;SDS011;64300;45.034;38.910;2023-02-28T00:47:15;12.05;;;4.50;;
75687;SDS011;64300;45.034;38.910;2023-02-28T00:49:42;8.63;;;4.25;;
75687;SDS011;64300;45.034;38.910;2023-02-28T00:52:08;9.50;;;4.88;;
75687;SDS011;64300;45.034;38.910;2023-02-28T00:54:34;7.57;;;3.85;;
75687;SDS011;64300;45.034;38.910;2023-02-28T00:57:00;8.93;;;4.80;;
75687;SDS011;64300;45.034;38.910;2023-02-28T00:59:26;9.20;;;4.25;;
75687;SDS011;64300;45.034;38.910;2023-02-28T01:01:52;10.98;;;4.18;;
75687;SDS011;64300;45.034;38.910;2023-02-28T01:04:18;8.57;;;4.32;;
75687;SDS011;64300;45.034;38.910;2023-02-28T01:06:44;10.57;;;4.80;;
75687;SDS011;64300;45.034;38.910;2023-02-28T01:09:10;10.98;;;4.07;;
75687;SDS011;64300;45.034;38.910;2023-02-28T01:11:37;10.52;;;4.60;;
75687;SDS011;64300;45.034;38.910;2023-02-28T01:14:05;9.70;;;3.97;;
75687;SDS011;64300;45.034;38.910;2023-02-28T01:16:31;12.18;;;4.13;;
75687;SDS011;64300;45.034;38.910;2023-02-28T01:18:57;9.63;;;4.07;;
75687;SDS011;64300;45.034;38.910;2023-02-28T01:21:23;7.45;;;3.55;;
75687;SDS011;64300;45.034;38.910;2023-02-28T01:23:49;9.88;;;3.92;;
75687;SDS011;64300;45.034;38.910;2023-02-28T01:26:16;8.57;;;3.75;;
75687;SDS011;64300;45.034;38.910;2023-02-28T01:28:44;10.52;;;3.75;;
75687;SDS011;64300;45.034;38.910;2023-02-28T01:31:10;8.63;;;3.60;;
75687;SDS011;64300;45.034;38.910;2023-02-28T01:33:37;10.07;;;4.22;;
75687;SDS011;64300;45.034;38.910;2023-02-28T01:36:05;9.85;;;4.50;;
75687;SDS011;64300;45.034;38.910;2023-02-28T01:38:34;10.52;;;4.50;;
75687;SDS011;64300;45.034;38.910;2023-02-28T01:41:00;9.73;;;4.20;;
75687;SDS011;64300;45.034;38.910;2023-02-28T01:46:07;8.93;;;3.85;;
75687;SDS011;64300;45.034;38.910;2023-02-28T01:48:34;9.60;;;4.00;;
75687;SDS011;64300;45.034;38.910;2023-02-28T01:51:11;8.18;;;3.80;;
75687;SDS011;64300;45.034;38.910;2023-02-28T01:53:42;9.07;;;4.05;;
75687;SDS011;64300;45.034;38.910;2023-02-28T01:56:16;9.65;;;3.72;;
75687;SDS011;64300;45.034;38.910;2023-02-28T01:58:51;8.77;;;3.78;;
75687;SDS011;64300;45.034;38.910;2023-02-28T02:01:19;11.60;;;4.47;;
75687;SDS011;64300;45.034;38.910;2023-02-28T02:03:56;6.53;;;3.42;;
75687;SDS011;64300;45.034;38.910;2023-02-28T02:06:24;8.68;;;4.03;;
75687;SDS011;64300;45.034;38.910;2023-02-28T02:08:53;10.25;;;4.00;;
75687;SDS011;64300;45.034;38.910;2023-02-28T02:11:20;8.02;;;4.13;;
75687;SDS011;64300;45.034;38.910;2023-02-28T02:13:55;9.38;;;4.28;;
75687;SDS011;64300;45.034;38.910;2023-02-28T02:17:00;9.50;;;3.63;;
75687;SDS011;64300;45.034;38.910;2023-02-28T02:22:43;8.70;;;3.75;;
75687;SDS011;64300;45.034;38.910;2023-02-28T02:25:35;8.05;;;3.88;;
75687;SDS011;64300;45.034;38.910;2023-02-28T02:31:15;8.70;;;4.13;;
75687;SDS011;64300;45.034;38.910;2023-02-28T02:39:50;11.93;;;4.40;;
75687;SDS011;64300;45.034;38.910;2023-02-28T02:45:53;10.15;;;4.95;;
75687;SDS011;64300;45.034;38.910;2023-02-28T02:48:27;8.43;;;4.28;;
75687;SDS011;64300;45.034;38.910;2023-02-28T02:51:03;8.90;;;3.97;;
75687;SDS011;64300;45.034;38.910;2023-02-28T02:53:47;8.70;;;3.70;;
75687;SDS011;64300;45.034;38.910;2023-02-28T02:56:19;14.77;;;4.40;;
75687;SDS011;64300;45.034;38.910;2023-02-28T02:58:49;27.25;;;5.38;;
75687;SDS011;64300;45.034;38.910;2023-02-28T03:01:21;13.65;;;4.25;;
75687;SDS011;64300;45.034;38.910;2023-02-28T03:03:58;16.13;;;4.72;;
75687;SDS011;64300;45.034;38.910;2023-02-28T03:06:28;19.83;;;6.47;;
75687;SDS011;64300;45.034;38.910;2023-02-28T03:08:54;16.92;;;4.72;;
75687;SDS011;64300;45.034;38.910;2023-02-28T03:11:24;13.05;;;4.32;;
75687;SDS011;64300;45.034;38.910;2023-02-28T03:13:55;10.98;;;3.78;;
75687;SDS011;64300;45.034;38.910;2023-02-28T03:27:55;7.65;;;3.30;;
75687;SDS011;64300;45.034;38.910;2023-02-28T03:30:29;11.13;;;4.18;;
75687;SDS011;64300;45.034;38.910;2023-02-28T03:33:17;10.82;;;4.53;;
75687;SDS011;64300;45.034;38.910;2023-02-28T03:35:50;7.68;;;3.83;;
75687;SDS011;64300;45.034;38.910;2023-02-28T03:38:23;12.02;;;4.10;;
75687;SDS011;64300;45.034;38.910;2023-02-28T03:41:02;7.55;;;3.65;;
75687;SDS011;64300;45.034;38.910;2023-02-28T03:43:35;11.00;;;3.70;;
75687;SDS011;64300;45.034;38.910;2023-02-28T03:46:05;7.65;;;3.67;;
75687;SDS011;64300;45.034;38.910;2023-02-28T03:48:37;9.23;;;3.80;;
75687;SDS011;64300;45.034;38.910;2023-02-28T03:51:09;8.85;;;3.78;;
75687;SDS011;64300;45.034;38.910;2023-02-28T03:53:39;8.60;;;3.58;;
75687;SDS011;64300;45.034;38.910;2023-02-28T04:03:39;12.02;;;4.28;;
75687;SDS011;64300;45.034;38.910;2023-02-28T04:06:07;8.57;;;4.03;;
75687;SDS011;64300;45.034;38.910;2023-02-28T04:08:38;9.85;;;3.38;;
75687;SDS011;64300;45.034;38.910;2023-02-28T04:11:08;8.48;;;3.63;;
75687;SDS011;64300;45.034;38.910;2023-02-28T04:16:39;7.85;;;3.50;;
75687;SDS011;64300;45.034;38.910;2023-02-28T04:19:09;9.32;;;3.63;;
75687;SDS011;64300;45.034;38.910;2023-02-28T04:21:39;7.55;;;3.47;;
75687;SDS011;64300;45.034;38.910;2023-02-28T04:24:22;9.18;;;3.60;;
75687;SDS011;64300;45.034;38.910;2023-02-28T04:26:50;6.07;;;3.70;;
75687;SDS011;64300;45.034;38.910;2023-02-28T04:29:21;8.40;;;3.67;;
75687;SDS011;64300;45.034;38.910;2023-02-28T04:31:49;9.38;;;3.45;;
75687;SDS011;64300;45.034;38.910;2023-02-28T04:34:15;9.30;;;3.60;;
75687;SDS011;64300;45.034;38.910;2023-02-28T04:36:41;12.18;;;3.60;;
75687;SDS011;64300;45.034;38.910;2023-02-28T04:39:07;12.13;;;3.50;;
75687;SDS011;64300;45.034;38.910;2023-02-28T04:41:35;9.48;;;3.83;;
75687;SDS011;64300;45.034;38.910;2023-02-28T04:44:01;12.68;;;3.95;;
75687;SDS011;64300;45.034;38.910;2023-02-28T04:46:26;10.98;;;4.00;;
75687;SDS011;64300;45.034;38.910;2023-02-28T04:48:52;9.48;;;3.20;;
75687;SDS011;64300;45.034;38.910;2023-02-28T04:51:19;14.00;;;3.97;;
75687;SDS011;64300;45.034;38.910;2023-02-28T04:53:45;17.88;;;4.07;;
75687;SDS011;64300;45.034;38.910;2023-02-28T04:56:13;9.75;;;3.70;;
75687;SDS011;64300;45.034;38.910;2023-02-28T04:58:40;8.90;;;4.15;;
75687;SDS011;64300;45.034;38.910;2023-02-28T05:01:07;12.25;;;3.92;;
75687;SDS011;64300;45.034;38.910;2023-02-28T05:03:41;11.73;;;3.83;;
75687;SDS011;64300;45.034;38.910;2023-02-28T05:06:08;8.15;;;3.42;;
75687;SDS011;64300;45.034;38.910;2023-02-28T05:08:35;9.25;;;3.95;;
75687;SDS011;64300;45.034;38.910;2023-02-28T05:11:01;11.00;;;3.50;;
75687;SDS011;64300;45.034;38.910;2023-02-28T05:13:28;9.02;;;3.88;;
75687;SDS011;64300;45.034;38.910;2023-02-28T05:15:55;14.05;;;4.28;;
75687;SDS011;64300;45.034;38.910;2023-02-28T05:18:21;7.75;;;3.72;;
75687;SDS011;64300;45.034;38.910;2023-02-28T05:20:47;7.70;;;4.00;;
75687;SDS011;64300;45.034;38.910;2023-02-28T05:23:13;12.85;;;4.00;;
75687;SDS011;64300;45.034;38.910;2023-02-28T05:25:40;7.72;;;3.50;;
75687;SDS011;64300;45.034;38.910;2023-02-28T05:28:07;10.25;;;3.88;;
75687;SDS011;64300;45.034;38.910;2023-02-28T05:30:33;12.82;;;4.15;;
75687;SDS011;64300;45.034;38.910;2023-02-28T05:32:59;14.40;;;4.60;;
75687;SDS011;64300;45.034;38.910;2023-02-28T05:35:25;10.07;;;4.10;;
75687;SDS011;64300;45.034;38.910;2023-02-28T05:37:51;7.20;;;3.95;;
75687;SDS011;64300;45.034;38.910;2023-02-28T05:40:17;11.13;;;4.07;;
75687;SDS011;64300;45.034;38.910;2023-02-28T05:42:45;11.45;;;3.58;;
75687;SDS011;64300;45.034;38.910;2023-02-28T05:45:11;12.25;;;4.68;;
75687;SDS011;64300;45.034;38.910;2023-02-28T05:47:37;12.35;;;4.28;;
75687;SDS011;64300;45.034;38.910;2023-02-28T05:50:04;8.98;;;3.70;;
75687;SDS011;64300;45.034;38.910;2023-02-28T05:52:30;5.88;;;3.40;;
75687;SDS011;64300;45.034;38.910;2023-02-28T05:54:56;9.13;;;3.75;;
75687;SDS011;64300;45.034;38.910;2023-02-28T05:57:22;8.93;;;3.63;;
75687;SDS011;64300;45.034;38.910;2023-02-28T06:03:01;11.23;;;3.67;;
75687;SDS011;64300;45.034;38.910;2023-02-28T06:05:27;10.02;;;4.00;;
75687;SDS011;64300;45.034;38.910;2023-02-28T06:07:53;15.00;;;5.18;;
75687;SDS011;64300;45.034;38.910;2023-02-28T06:10:19;11.30;;;5.03;;
75687;SDS011;64300;45.034;38.910;2023-02-28T06:12:45;17.17;;;6.50;;
75687;SDS011;64300;45.034;38.910;2023-02-28T06:15:12;12.15;;;5.70;;
75687;SDS011;64300;45.034;38.910;2023-02-28T06:17:39;12.40;;;5.38;;
75687;SDS011;64300;45.034;38.910;2023-02-28T06:20:06;12.82;;;5.75;;
75687;SDS011;64300;45.034;38.910;2023-02-28T06:22:34;12.10;;;5.10;;
75687;SDS011;64300;45.034;38.910;2023-02-28T06:25:01;9.18;;;4.85;;
75687;SDS011;64300;45.034;38.910;2023-02-28T06:27:31;10.38;;;4.72;;
75687;SDS011;64300;45.034;38.910;2023-02-28T06:29:58;13.63;;;4.82;;
75687;SDS011;64300;45.034;38.910;2023-02-28T06:32:24;7.82;;;4.30;;
75687;SDS011;64300;45.034;38.910;2023-02-28T06:34:50;12.57;;;5.18;;
75687;SDS011;64300;45.034;38.910;2023-02-28T06:37:16;12.23;;;5.28;;
75687;SDS011;64300;45.034;38.910;2023-02-28T06:39:43;12.60;;;4.70;;
75687;SDS011;64300;45.034;38.910;2023-02-28T06:42:10;15.60;;;5.20;;
75687;SDS011;64300;45.034;38.910;2023-02-28T06:44:36;12.80;;;5.53;;
75687;SDS011;64300;45.034;38.910;2023-02-28T06:47:04;11.65;;;5.20;;
75687;SDS011;64300;45.034;38.910;2023-02-28T06:49:33;13.98;;;4.53;;
75687;SDS011;64300;45.034;38.910;2023-02-28T06:52:01;14.35;;;5.32;;
75687;SDS011;64300;45.034;38.910;2023-02-28T06:54:27;14.52;;;4.93;;
75687;SDS011;64300;45.034;38.910;2023-02-28T06:56:53;16.02;;;5.30;;
75687;SDS011;64300;45.034;38.910;2023-02-28T06:59:22;17.45;;;5.82;;
75687;SDS011;64300;45.034;38.910;2023-02-28T07:01:48;10.65;;;4.57;;
75687;SDS011;64300;45.034;38.910;2023-02-28T07:04:14;12.82;;;5.25;;
75687;SDS011;64300;45.034;38.910;2023-02-28T07:06:40;13.65;;;5.47;;
75687;SDS011;64300;45.034;38.910;2023-02-28T07:09:05;11.10;;;4.85;;
75687;SDS011;64300;45.034;38.910;2023-02-28T07:11:31;9.63;;;4.82;;
75687;SDS011;64300;45.034;38.910;2023-02-28T07:13:57;9.13;;;4.38;;
75687;SDS011;64300;45.034;38.910;2023-02-28T07:16:24;10.80;;;4.30;;
75687;SDS011;64300;45.034;38.910;2023-02-28T07:18:53;16.95;;;4.78;;
75687;SDS011;64300;45.034;38.910;2023-02-28T07:21:20;12.18;;;4.45;;
75687;SDS011;64300;45.034;38.910;2023-02-28T07:23:46;6.53;;;3.33;;
75687;SDS011;64300;45.034;38.910;2023-02-28T07:26:13;15.90;;;4.80;;
75687;SDS011;64300;45.034;38.910;2023-02-28T07:28:44;10.25;;;4.47;;
75687;SDS011;64300;45.034;38.910;2023-02-28T07:31:11;12.63;;;5.10;;
75687;SDS011;64300;45.034;38.910;2023-02-28T07:33:39;15.73;;;5.22;;
75687;SDS011;64300;45.034;38.910;2023-02-28T07:36:07;14.93;;;5.82;;
75687;SDS011;64300;45.034;38.910;2023-02-28T07:38:56;15.32;;;5.25;;
75687;SDS011;64300;45.034;38.910;2023-02-28T07:43:52;13.80;;;5.40;;
75687;SDS011;64300;45.034;38.910;2023-02-28T07:46:19;12.35;;;4.25;;
75687;SDS011;64300;45.034;38.910;2023-02-28T07:48:46;13.52;;;3.75;;
75687;SDS011;64300;45.034;38.910;2023-02-28T07:51:14;15.07;;;5.93;;
75687;SDS011;64300;45.034;38.910;2023-02-28T07:53:40;14.15;;;4.97;;
75687;SDS011;64300;45.034;38.910;2023-02-28T07:56:07;17.83;;;5.60;;
75687;SDS011;64300;45.034;38.910;2023-02-28T07:58:33;14.02;;;5.13;;
75687;SDS011;64300;45.034;38.910;2023-02-28T08:01:05;13.75;;;5.35;;
75687;SDS011;64300;45.034;38.910;2023-02-28T08:03:35;14.20;;;5.82;;
75687;SDS011;64300;45.034;38.910;2023-02-28T08:06:05;13.40;;;4.95;;
75687;SDS011;64300;45.034;38.910;2023-02-28T08:08:33;10.57;;;3.67;;
75687;SDS011;64300;45.034;38.910;2023-02-28T08:11:02;12.38;;;5.35;;
75687;SDS011;64300;45.034;38.910;2023-02-28T08:13:29;10.75;;;4.55;;
75687;SDS011;64300;45.034;38.910;2023-02-28T08:15:55;8.95;;;4.07;;
75687;SDS011;64300;45.034;38.910;2023-02-28T08:18:22;11.88;;;4.60;;
75687;SDS011;64300;45.034;38.910;2023-02-28T08:20:48;13.45;;;4.47;;
75687;SDS011;64300;45.034;38.910;2023-02-28T08:23:14;13.30;;;5.20;;
75687;SDS011;64300;45.034;38.910;2023-02-28T08:25:40;14.40;;;5.10;;
75687;SDS011;64300;45.034;38.910;2023-02-28T08:28:09;14.57;;;6.30;;
75687;SDS011;64300;45.034;38.910;2023-02-28T08:30:35;15.15;;;6.60;;
75687;SDS011;64300;45.034;38.910;2023-02-28T08:33:01;16.17;;;6.50;;
75687;SDS011;64300;45.034;38.910;2023-02-28T08:35:27;13.50;;;6.43;;
75687;SDS011;64300;45.034;38.910;2023-02-28T08:37:53;12.63;;;4.85;;
75687;SDS011;64300;45.034;38.910;2023-02-28T08:40:19;15.40;;;6.10;;
75687;SDS011;64300;45.034;38.910;2023-02-28T08:42:45;16.77;;;4.63;;
75687;SDS011;64300;45.034;38.910;2023-02-28T08:45:11;20.40;;;7.47;;
75687;SDS011;64300;45.034;38.910;2023-02-28T08:47:37;13.40;;;5.47;;
75687;SDS011;64300;45.034;38.910;2023-02-28T08:50:04;20.85;;;8.50;;
75687;SDS011;64300;45.034;38.910;2023-02-28T08:52:30;17.33;;;6.32;;
75687;SDS011;64300;45.034;38.910;2023-02-28T08:54:56;22.92;;;9.00;;
75687;SDS011;64300;45.034;38.910;2023-02-28T08:57:25;21.45;;;7.68;;
75687;SDS011;64300;45.034;38.910;2023-02-28T08:59:53;16.60;;;7.50;;
75687;SDS011;64300;45.034;38.910;2023-02-28T09:02:19;11.50;;;5.60;;
75687;SDS011;64300;45.034;38.910;2023-02-28T09:04:45;16.98;;;7.43;;
75687;SDS011;64300;45.034;38.910;2023-02-28T09:07:11;13.27;;;5.60;;
75687;SDS011;64300;45.034;38.910;2023-02-28T09:09:37;12.35;;;5.00;;
75687;SDS011;64300;45.034;38.910;2023-02-28T09:12:25;15.07;;;6.28;;
75687;SDS011;64300;45.034;38.910;2023-02-28T09:18:06;15.00;;;6.65;;
75687;SDS011;64300;45.034;38.910;2023-02-28T09:20:32;11.90;;;5.40;;
75687;SDS011;64300;45.034;38.910;2023-02-28T09:22:58;13.18;;;5.40;;
75687;SDS011;64300;45.034;38.910;2023-02-28T09:28:33;16.67;;;7.07;;
75687;SDS011;64300;45.034;38.910;2023-02-28T09:30:59;14.85;;;7.18;;
75687;SDS011;64300;45.034;38.910;2023-02-28T09:33:26;14.65;;;7.35;;
75687;SDS011;64300;45.034;38.910;2023-02-28T09:35:59;15.10;;;5.07;;
75687;SDS011;64300;45.034;38.910;2023-02-28T09:38:26;11.25;;;5.78;;
75687;SDS011;64300;45.034;38.910;2023-02-28T09:40:53;14.98;;;5.70;;
75687;SDS011;64300;45.034;38.910;2023-02-28T09:43:23;11.55;;;5.47;;
75687;SDS011;64300;45.034;38.910;2023-02-28T09:46:18;14.32;;;6.90;;
75687;SDS011;64300;45.034;38.910;2023-02-28T09:48:51;13.68;;;7.00;;
75687;SDS011;64300;45.034;38.910;2023-02-28T09:51:28;14.93;;;7.47;;
75687;SDS011;64300;45.034;38.910;2023-02-28T09:53:56;11.43;;;6.45;;
75687;SDS011;64300;45.034;38.910;2023-02-28T09:56:26;14.80;;;7.25;;
75687;SDS011;64300;45.034;38.910;2023-02-28T10:07:11;11.15;;;5.93;;
75687;SDS011;64300;45.034;38.910;2023-02-28T10:09:59;15.90;;;7.30;;
75687;SDS011;64300;45.034;38.910;2023-02-28T10:12:27;18.25;;;9.82;;
75687;SDS011;64300;45.034;38.910;2023-02-28T10:14:55;13.70;;;4.80;;
75687;SDS011;64300;45.034;38.910;2023-02-28T10:17:25;17.50;;;7.72;;
75687;SDS011;64300;45.034;38.910;2023-02-28T10:20:12;16.80;;;7.80;;
75687;SDS011;64300;45.034;38.910;2023-02-28T10:25:22;16.88;;;7.75;;
75687;SDS011;64300;45.034;38.910;2023-02-28T10:27:52;14.10;;;7.03;;
75687;SDS011;64300;45.034;38.910;2023-02-28T10:30:22;18.08;;;9.18;;
75687;SDS011;64300;45.034;38.910;2023-02-28T10:32:49;19.67;;;8.98;;
75687;SDS011;64300;45.034;38.910;2023-02-28T10:35:22;13.52;;;7.45;;
75687;SDS011;64300;45.034;38.910;2023-02-28T10:37:51;11.82;;;7.13;;
75687;SDS011;64300;45.034;38.910;2023-02-28T10:42:59;15.48;;;8.32;;
75687;SDS011;64300;45.034;38.910;2023-02-28T10:45:30;15.15;;;7.60;;
75687;SDS011;64300;45.034;38.910;2023-02-28T11:07:11;13.65;;;6.93;;
75687;SDS011;64300;45.034;38.910;2023-02-28T11:09:47;18.20;;;7.70;;
75687;SDS011;64300;45.034;38.910;2023-02-28T11:12:23;19.63;;;9.07;;
75687;SDS011;64300;45.034;38.910;2023-02-28T11:14:59;23.60;;;9.95;;
75687;SDS011;64300;45.034;38.910;2023-02-28T11:17:31;16.30;;;8.60;;
75687;SDS011;64300;45.034;38.910;2023-02-28T11:20:02;21.50;;;10.68;;
75687;SDS011;64300;45.034;38.910;2023-02-28T11:22:37;18.23;;;9.32;;
75687;SDS011;64300;45.034;38.910;2023-02-28T11:25:21;20.45;;;10.93;;
75687;SDS011;64300;45.034;38.910;2023-02-28T11:28:00;14.95;;;7.93;;
75687;SDS011;64300;45.034;38.910;2023-02-28T11:36:02;13.27;;;6.05;;
75687;SDS011;64300;45.034;38.910;2023-02-28T11:38:34;17.10;;;7.88;;
75687;SDS011;64300;45.034;38.910;2023-02-28T11:41:05;17.38;;;7.82;;
75687;SDS011;64300;45.034;38.910;2023-02-28T11:54:47;18.48;;;9.52;;
75687;SDS011;64300;45.034;38.910;2023-02-28T12:08:05;20.98;;;9.15;;
75687;SDS011;64300;45.034;38.910;2023-02-28T12:11:10;17.10;;;8.30;;
75687;SDS011;64300;45.034;38.910;2023-02-28T12:14:14;20.75;;;9.35;;
75687;SDS011;64300;45.034;38.910;2023-02-28T12:17:01;19.25;;;8.85;;
75687;SDS011;64300;45.034;38.910;2023-02-28T12:19:50;15.63;;;7.43;;
75687;SDS011;64300;45.034;38.910;2023-02-28T12:27:46;12.60;;;6.70;;
75687;SDS011;64300;45.034;38.910;2023-02-28T12:30:24;12.43;;;5.22;;
75687;SDS011;64300;45.034;38.910;2023-02-28T12:33:07;14.00;;;6.25;;
75687;SDS011;64300;45.034;38.910;2023-02-28T12:35:41;18.77;;;9.02;;
75687;SDS011;64300;45.034;38.910;2023-02-28T12:38:21;17.13;;;6.70;;
75687;SDS011;64300;45.034;38.910;2023-02-28T12:40:53;20.73;;;9.10;;
75687;SDS011;64300;45.034;38.910;2023-02-28T12:43:25;14.02;;;6.97;;
75687;SDS011;64300;45.034;38.910;2023-02-28T12:45:59;15.00;;;8.18;;
75687;SDS011;64300;45.034;38.910;2023-02-28T12:51:14;13.02;;;5.78;;
75687;SDS011;64300;45.034;38.910;2023-02-28T12:54:04;11.90;;;5.60;;
75687;SDS011;64300;45.034;38.910;2023-02-28T12:56:44;13.02;;;5.38;;
75687;SDS011;64300;45.034;38.910;2023-02-28T13:01:47;27.58;;;11.57;;
75687;SDS011;64300;45.034;38.910;2023-02-28T13:10:14;21.77;;;8.57;;
75687;SDS011;64300;45.034;38.910;2023-02-28T13:12:49;23.15;;;8.90;;
75687;SDS011;64300;45.034;38.910;2023-02-28T13:15:26;16.52;;;8.80;;
75687;SDS011;64300;45.034;38.910;2023-02-28T13:17:55;17.55;;;7.90;;
75687;SDS011;64300;45.034;38.910;2023-02-28T13:20:24;12.23;;;5.55;;
75687;SDS011;64300;45.034;38.910;2023-02-28T13:22:52;17.33;;;7.78;;
75687;SDS011;64300;45.034;38.910;2023-02-28T13:27:51;21.58;;;10.82;;
75687;SDS011;64300;45.034;38.910;2023-02-28T13:38:42;25.42;;;11.52;;
75687;SDS011;64300;45.034;38.910;2023-02-28T13:44:21;19.45;;;7.90;;
75687;SDS011;64300;45.034;38.910;2023-02-28T14:11:37;17.13;;;8.43;;
75687;SDS011;64300;45.034;38.910;2023-02-28T14:14:05;10.95;;;6.07;;
75687;SDS011;64300;45.034;38.910;2023-02-28T14:19:24;20.13;;;8.55;;
75687;SDS011;64300;45.034;38.910;2023-02-28T14:22:12;16.35;;;6.18;;
75687;SDS011;64300;45.034;38.910;2023-02-28T14:24:54;19.17;;;9.55;;
75687;SDS011;64300;45.034;38.910;2023-02-28T14:27:42;12.68;;;6.53;;
75687;SDS011;64300;45.034;38.910;2023-02-28T14:30:14;17.50;;;6.80;;
75687;SDS011;64300;45.034;38.910;2023-02-28T14:39:05;20.80;;;8.38;;
75687;SDS011;64300;45.034;38.910;2023-02-28T14:41:30;15.05;;;7.22;;
75687;SDS011;64300;45.034;38.910;2023-02-28T14:44:03;22.98;;;7.72;;
75687;SDS011;64300;45.034;38.910;2023-02-28T14:46:43;22.02;;;9.07;;
75687;SDS011;64300;45.034;38.910;2023-02-28T14:49:12;31.48;;;12.05;;
75687;SDS011;64300;45.034;38.910;2023-02-28T14:52:01;23.70;;;9.98;;
75687;SDS011;64300;45.034;38.910;2023-02-28T14:54:35;21.80;;;9.50;;
75687;SDS011;64300;45.034;38.910;2023-02-28T14:57:02;24.02;;;10.00;;
75687;SDS011;64300;45.034;38.910;2023-02-28T14:59:35;24.45;;;8.30;;
75687;SDS011;64300;45.034;38.910;2023-02-28T15:05:00;19.98;;;8.27;;
75687;SDS011;64300;45.034;38.910;2023-02-28T15:07:45;16.08;;;6.50;;
75687;SDS011;64300;45.034;38.910;2023-02-28T15:10:20;23.25;;;8.85;;
75687;SDS011;64300;45.034;38.910;2023-02-28T15:13:11;15.75;;;6.75;;
75687;SDS011;64300;45.034;38.910;2023-02-28T15:20:50;19.75;;;7.32;;
75687;SDS011;64300;45.034;38.910;2023-02-28T15:23:16;20.13;;;7.90;;
75687;SDS011;64300;45.034;38.910;2023-02-28T15:25:44;17.40;;;6.07;;
75687;SDS011;64300;45.034;38.910;2023-02-28T15:28:14;17.27;;;6.25;;
75687;SDS011;64300;45.034;38.910;2023-02-28T15:30:53;19.88;;;7.78;;
75687;SDS011;64300;45.034;38.910;2023-02-28T15:33:24;18.98;;;6.53;;
75687;SDS011;64300;45.034;38.910;2023-02-28T15:36:09;14.60;;;6.05;;
75687;SDS011;64300;45.034;38.910;2023-02-28T15:38:39;19.27;;;7.15;;
75687;SDS011;64300;45.034;38.910;2023-02-28T15:41:04;19.70;;;7.57;;
75687;SDS011;64300;45.034;38.910;2023-02-28T15:43:36;16.02;;;6.90;;
75687;SDS011;64300;45.034;38.910;2023-02-28T15:46:08;21.60;;;8.43;;
75687;SDS011;64300;45.034;38.910;2023-02-28T15:48:50;16.30;;;7.15;;
75687;SDS011;64300;45.034;38.910;2023-02-28T15:51:23;16.67;;;6.60;;
75687;SDS011;64300;45.034;38.910;2023-02-28T15:53:54;19.08;;;6.95;;
75687;SDS011;64300;45.034;38.910;2023-02-28T15:56:25;13.88;;;6.03;;
75687;SDS011;64300;45.034;38.910;2023-02-28T15:58:53;15.10;;;5.78;;
75687;SDS011;64300;45.034;38.910;2023-02-28T16:01:46;23.30;;;9.35;;
75687;SDS011;64300;45.034;38.910;2023-02-28T16:04:26;20.38;;;7.63;;
75687;SDS011;64300;45.034;38.910;2023-02-28T16:07:00;19.02;;;6.25;;
75687;SDS011;64300;45.034;38.910;2023-02-28T16:09:28;19.55;;;7.20;;
75687;SDS011;64300;45.034;38.910;2023-02-28T16:11:58;19.50;;;6.82;;
75687;SDS011;64300;45.034;38.910;2023-02-28T16:14:27;21.75;;;9.60;;
75687;SDS011;64300;45.034;38.910;2023-02-28T16:17:05;18.35;;;6.75;;
75687;SDS011;64300;45.034;38.910;2023-02-28T16:19:35;13.13;;;6.22;;
75687;SDS011;64300;45.034;38.910;2023-02-28T16:24:27;14.80;;;6.22;;
75687;SDS011;64300;45.034;38.910;2023-02-28T16:26:54;28.23;;;11.02;;
75687;SDS011;64300;45.034;38.910;2023-02-28T16:29:40;27.48;;;10.70;;
75687;SDS011;64300;45.034;38.910;2023-02-28T16:32:07;17.55;;;6.47;;
75687;SDS011;64300;45.034;38.910;2023-02-28T16:34:33;14.00;;;6.15;;
75687;SDS011;64300;45.034;38.910;2023-02-28T16:39:25;14.15;;;5.07;;
75687;SDS011;64300;45.034;38.910;2023-02-28T16:41:51;11.75;;;4.85;;
75687;SDS011;64300;45.034;38.910;2023-02-28T16:44:21;15.77;;;5.82;;
75687;SDS011;64300;45.034;38.910;2023-02-28T16:46:50;12.07;;;6.20;;
75687;SDS011;64300;45.034;38.910;2023-02-28T16:49:16;11.75;;;5.50;;
75687;SDS011;64300;45.034;38.910;2023-02-28T16:51:42;17.90;;;7.50;;
75687;SDS011;64300;45.034;38.910;2023-02-28T16:56:34;15.43;;;6.57;;
75687;SDS011;64300;45.034;38.910;2023-02-28T16:59:01;11.52;;;5.43;;
75687;SDS011;64300;45.034;38.910;2023-02-28T17:01:27;12.70;;;4.82;;
75687;SDS011;64300;45.034;38.910;2023-02-28T17:03:54;10.85;;;5.00;;
75687;SDS011;64300;45.034;38.910;2023-02-28T17:06:22;16.88;;;6.10;;
75687;SDS011;64300;45.034;38.910;2023-02-28T17:08:50;13.95;;;5.82;;
75687;SDS011;64300;45.034;38.910;2023-02-28T17:11:17;16.35;;;6.82;;
75687;SDS011;64300;45.034;38.910;2023-02-28T17:13:45;16.98;;;7.03;;
75687;SDS011;64300;45.034;38.910;2023-02-28T17:16:17;10.45;;;5.15;;
75687;SDS011;64300;45.034;38.910;2023-02-28T17:18:49;17.25;;;6.75;;
75687;SDS011;64300;45.034;38.910;2023-02-28T17:21:17;12.77;;;4.78;;
75687;SDS011;64300;45.034;38.910;2023-02-28T17:23:44;10.93;;;4.93;;
75687;SDS011;64300;45.034;38.910;2023-02-28T17:28:43;9.18;;;3.85;;
75687;SDS011;64300;45.034;38.910;2023-02-28T17:31:09;8.20;;;3.63;;
75687;SDS011;64300;45.034;38.910;2023-02-28T17:33:36;18.92;;;4.32;;
75687;SDS011;64300;45.034;38.910;2023-02-28T17:38:31;11.77;;;3.25;;
75687;SDS011;64300;45.034;38.910;2023-02-28T17:40:57;8.07;;;3.80;;
75687;SDS011;64300;45.034;38.910;2023-02-28T17:43:25;7.72;;;2.72;;
75687;SDS011;64300;45.034;38.910;2023-02-28T17:45:55;15.18;;;5.65;;
75687;SDS011;64300;45.034;38.910;2023-02-28T17:48:21;8.85;;;4.15;;
75687;SDS011;64300;45.034;38.910;2023-02-28T17:53:13;5.85;;;2.72;;
75687;SDS011;64300;45.034;38.910;2023-02-28T17:58:08;12.38;;;5.00;;
75687;SDS011;64300;45.034;38.910;2023-02-28T18:00:37;13.32;;;5.15;;
75687;SDS011;64300;45.034;38.910;2023-02-28T18:05:29;11.90;;;4.07;;